ENBR/BGO METAR and TAF weather

Enter ICAO airport designator
Station Type Date Time Source
ENBR METAR 2020/04/05 11:50 UTC NOAA

ENBR 051150Z 15015KT 9999 FEW030 BKN058 09/03 Q1020 TEMPO 15020G30KT RMK WIND 1200FT 16025G36KT


Station Type Date Time Source
ENBR Decoded METAR 2020/04/05 11:50 UTC NOAA

Bergen / Flesland, Norway (ENBR) 60-17N 005-14E 50M
Apr 05, 2020 - 07:50 AM EDT / 2020.04.05 1150 UTC
Wind: from the SSE (150 degrees) at 17 MPH (15 KT):0
Visibility: greater than 7 mile(s):0
Sky conditions: mostly cloudy
Temperature: 48 F (9 C)
Dew Point: 37 F (3 C)
Relative Humidity: 66%
Pressure (altimeter): 30.12 in. Hg (1020 hPa)
ob: ENBR 051150Z 15015KT 9999 FEW030 BKN058 09/03 Q1020 TEMPO 15020G30KT RMK WIND 1200FT 16025G36KT
cycle: 12

Station Type Date Time Source
ENBR TAF 2020/04/05 12:57 UTC NOAA

TAF ENBR 051100Z 0512/0612 15015KT 9999 FEW020 BKN050
TEMPO 0512/0517 15020G35KT
TEMPO 0523/0606 15020G35KT
BECMG 0606/0609 15028G40KT

Example: see airport list